sensor_id;sensor_type;location;lat;lon;timestamp;temperature;humidity
33988;DHT22;37428;53.580;-1.666;2023-06-14T00:01:06;17.00;52.70
33988;DHT22;37428;53.580;-1.666;2023-06-14T00:04:10;16.80;53.40
33988;DHT22;37428;53.580;-1.666;2023-06-14T00:07:12;16.90;53.80
33988;DHT22;37428;53.580;-1.666;2023-06-14T00:10:14;16.80;54.10
33988;DHT22;37428;53.580;-1.666;2023-06-14T00:13:18;16.80;54.50
33988;DHT22;37428;53.580;-1.666;2023-06-14T00:16:21;16.70;54.90
33988;DHT22;37428;53.580;-1.666;2023-06-14T00:19:23;16.70;55.30
33988;DHT22;37428;53.580;-1.666;2023-06-14T00:22:25;16.50;55.90
33988;DHT22;37428;53.580;-1.666;2023-06-14T00:25:29;16.30;56.50
33988;DHT22;37428;53.580;-1.666;2023-06-14T00:28:36;16.20;57.00
33988;DHT22;37428;53.580;-1.666;2023-06-14T00:31:39;16.20;57.30
33988;DHT22;37428;53.580;-1.666;2023-06-14T00:34:41;16.20;57.30
33988;DHT22;37428;53.580;-1.666;2023-06-14T00:37:43;16.10;57.70
33988;DHT22;37428;53.580;-1.666;2023-06-14T00:40:45;16.00;58.10
33988;DHT22;37428;53.580;-1.666;2023-06-14T00:43:50;15.90;58.50
33988;DHT22;37428;53.580;-1.666;2023-06-14T00:46:53;15.90;58.80
33988;DHT22;37428;53.580;-1.666;2023-06-14T00:49:56;15.90;58.80
33988;DHT22;37428;53.580;-1.666;2023-06-14T00:52:58;15.90;59.10
33988;DHT22;37428;53.580;-1.666;2023-06-14T00:56:02;15.80;59.40
33988;DHT22;37428;53.580;-1.666;2023-06-14T00:59:05;15.80;59.50
33988;DHT22;37428;53.580;-1.666;2023-06-14T01:02:09;15.90;59.30
33988;DHT22;37428;53.580;-1.666;2023-06-14T01:05:17;15.90;59.10
33988;DHT22;37428;53.580;-1.666;2023-06-14T01:08:24;15.90;59.20
33988;DHT22;37428;53.580;-1.666;2023-06-14T01:11:35;15.90;59.30
33988;DHT22;37428;53.580;-1.666;2023-06-14T01:14:41;15.90;59.70
33988;DHT22;37428;53.580;-1.666;2023-06-14T01:17:44;15.90;59.30
33988;DHT22;37428;53.580;-1.666;2023-06-14T01:20:47;15.90;59.20
33988;DHT22;37428;53.580;-1.666;2023-06-14T01:23:54;15.90;59.70
33988;DHT22;37428;53.580;-1.666;2023-06-14T01:26:57;15.80;59.90
33988;DHT22;37428;53.580;-1.666;2023-06-14T01:30:00;15.80;59.90
33988;DHT22;37428;53.580;-1.666;2023-06-14T01:33:07;15.70;60.30
33988;DHT22;37428;53.580;-1.666;2023-06-14T01:36:10;15.60;60.20
33988;DHT22;37428;53.580;-1.666;2023-06-14T01:39:17;15.60;60.30
33988;DHT22;37428;53.580;-1.666;2023-06-14T01:42:19;15.40;60.90
33988;DHT22;37428;53.580;-1.666;2023-06-14T01:45:24;15.40;61.40
33988;DHT22;37428;53.580;-1.666;2023-06-14T01:48:33;15.30;61.60
33988;DHT22;37428;53.580;-1.666;2023-06-14T01:51:38;15.30;61.80
33988;DHT22;37428;53.580;-1.666;2023-06-14T01:54:46;15.20;62.00
33988;DHT22;37428;53.580;-1.666;2023-06-14T01:57:50;15.10;62.30
33988;DHT22;37428;53.580;-1.666;2023-06-14T02:00:52;15.00;62.90
33988;DHT22;37428;53.580;-1.666;2023-06-14T02:03:57;15.00;63.40
33988;DHT22;37428;53.580;-1.666;2023-06-14T02:06:59;14.90;63.70
33988;DHT22;37428;53.580;-1.666;2023-06-14T02:10:03;14.80;64.00
33988;DHT22;37428;53.580;-1.666;2023-06-14T02:13:05;14.80;64.20
33988;DHT22;37428;53.580;-1.666;2023-06-14T02:16:07;14.70;64.20
33988;DHT22;37428;53.580;-1.666;2023-06-14T02:19:10;14.80;64.30
33988;DHT22;37428;53.580;-1.666;2023-06-14T02:22:12;14.80;64.00
33988;DHT22;37428;53.580;-1.666;2023-06-14T02:25:17;14.80;63.70
33988;DHT22;37428;53.580;-1.666;2023-06-14T02:28:19;14.80;63.90
33988;DHT22;37428;53.580;-1.666;2023-06-14T02:31:22;14.80;63.70
33988;DHT22;37428;53.580;-1.666;2023-06-14T02:34:25;14.80;64.00
33988;DHT22;37428;53.580;-1.666;2023-06-14T02:37:27;14.70;64.00
33988;DHT22;37428;53.580;-1.666;2023-06-14T02:40:32;14.80;63.90
33988;DHT22;37428;53.580;-1.666;2023-06-14T02:43:34;14.70;63.80
33988;DHT22;37428;53.580;-1.666;2023-06-14T02:46:36;14.70;63.60
33988;DHT22;37428;53.580;-1.666;2023-06-14T02:49:39;14.70;64.00
33988;DHT22;37428;53.580;-1.666;2023-06-14T02:52:44;14.70;64.20
33988;DHT22;37428;53.580;-1.666;2023-06-14T02:55:59;14.70;64.20
33988;DHT22;37428;53.580;-1.666;2023-06-14T02:59:16;14.60;64.40
33988;DHT22;37428;53.580;-1.666;2023-06-14T03:02:25;14.70;64.40
33988;DHT22;37428;53.580;-1.666;2023-06-14T03:05:27;14.70;64.70
33988;DHT22;37428;53.580;-1.666;2023-06-14T03:08:31;14.70;64.50
33988;DHT22;37428;53.580;-1.666;2023-06-14T03:11:43;14.60;64.50
33988;DHT22;37428;53.580;-1.666;2023-06-14T03:14:45;14.60;64.50
33988;DHT22;37428;53.580;-1.666;2023-06-14T03:17:47;14.50;64.20
33988;DHT22;37428;53.580;-1.666;2023-06-14T03:20:49;14.50;64.20
33988;DHT22;37428;53.580;-1.666;2023-06-14T03:23:52;14.40;64.10
33988;DHT22;37428;53.580;-1.666;2023-06-14T03:26:55;14.40;64.30
33988;DHT22;37428;53.580;-1.666;2023-06-14T03:29:58;14.40;64.10
33988;DHT22;37428;53.580;-1.666;2023-06-14T03:33:00;14.30;64.00
33988;DHT22;37428;53.580;-1.666;2023-06-14T03:36:05;14.30;63.70
33988;DHT22;37428;53.580;-1.666;2023-06-14T03:39:07;14.20;63.50
33988;DHT22;37428;53.580;-1.666;2023-06-14T03:42:15;14.20;63.40
33988;DHT22;37428;53.580;-1.666;2023-06-14T03:45:18;14.10;60.80
33988;DHT22;37428;53.580;-1.666;2023-06-14T03:48:20;14.10;61.70
33988;DHT22;37428;53.580;-1.666;2023-06-14T03:51:24;14.10;61.20
33988;DHT22;37428;53.580;-1.666;2023-06-14T03:54:26;14.10;61.00
33988;DHT22;37428;53.580;-1.666;2023-06-14T03:57:32;14.10;60.80
33988;DHT22;37428;53.580;-1.666;2023-06-14T04:00:34;14.20;60.50
33988;DHT22;37428;53.580;-1.666;2023-06-14T04:03:37;14.10;60.00
33988;DHT22;37428;53.580;-1.666;2023-06-14T04:06:42;14.10;60.30
33988;DHT22;37428;53.580;-1.666;2023-06-14T04:09:46;14.10;59.80
33988;DHT22;37428;53.580;-1.666;2023-06-14T04:12:52;14.00;60.30
33988;DHT22;37428;53.580;-1.666;2023-06-14T04:15:54;14.00;60.30
33988;DHT22;37428;53.580;-1.666;2023-06-14T04:18:57;14.00;60.50
33988;DHT22;37428;53.580;-1.666;2023-06-14T04:22:00;14.00;60.30
33988;DHT22;37428;53.580;-1.666;2023-06-14T04:25:03;14.00;60.20
33988;DHT22;37428;53.580;-1.666;2023-06-14T04:28:08;13.90;60.60
33988;DHT22;37428;53.580;-1.666;2023-06-14T04:31:10;13.90;60.80
33988;DHT22;37428;53.580;-1.666;2023-06-14T04:34:12;13.90;60.70
33988;DHT22;37428;53.580;-1.666;2023-06-14T04:37:25;14.00;60.40
33988;DHT22;37428;53.580;-1.666;2023-06-14T04:40:28;14.10;60.30
33988;DHT22;37428;53.580;-1.666;2023-06-14T04:43:32;14.10;60.20
33988;DHT22;37428;53.580;-1.666;2023-06-14T04:46:38;14.20;59.90
33988;DHT22;37428;53.580;-1.666;2023-06-14T04:49:46;14.20;60.10
33988;DHT22;37428;53.580;-1.666;2023-06-14T04:52:48;14.20;60.30
33988;DHT22;37428;53.580;-1.666;2023-06-14T04:55:52;14.20;60.10
33988;DHT22;37428;53.580;-1.666;2023-06-14T04:58:55;14.20;60.40
33988;DHT22;37428;53.580;-1.666;2023-06-14T05:01:57;14.20;60.20
33988;DHT22;37428;53.580;-1.666;2023-06-14T05:05:00;14.30;60.30
33988;DHT22;37428;53.580;-1.666;2023-06-14T05:08:03;14.30;60.30
33988;DHT22;37428;53.580;-1.666;2023-06-14T05:11:12;14.30;60.40
33988;DHT22;37428;53.580;-1.666;2023-06-14T05:14:16;14.40;60.40
33988;DHT22;37428;53.580;-1.666;2023-06-14T05:17:19;14.40;60.60
33988;DHT22;37428;53.580;-1.666;2023-06-14T05:20:21;14.30;60.70
33988;DHT22;37428;53.580;-1.666;2023-06-14T05:23:25;14.30;61.00
33988;DHT22;37428;53.580;-1.666;2023-06-14T05:26:27;14.20;61.00
33988;DHT22;37428;53.580;-1.666;2023-06-14T05:29:32;14.30;61.40
33988;DHT22;37428;53.580;-1.666;2023-06-14T05:32:34;14.50;60.90
33988;DHT22;37428;53.580;-1.666;2023-06-14T05:35:38;14.60;60.40
33988;DHT22;37428;53.580;-1.666;2023-06-14T05:38:54;14.80;60.40
33988;DHT22;37428;53.580;-1.666;2023-06-14T05:42:08;15.00;59.90
33988;DHT22;37428;53.580;-1.666;2023-06-14T05:45:13;15.10;59.70
33988;DHT22;37428;53.580;-1.666;2023-06-14T05:48:16;15.30;59.20
33988;DHT22;37428;53.580;-1.666;2023-06-14T05:51:20;15.30;58.90
33988;DHT22;37428;53.580;-1.666;2023-06-14T05:54:36;15.50;59.10
33988;DHT22;37428;53.580;-1.666;2023-06-14T05:57:39;15.50;58.90
33988;DHT22;37428;53.580;-1.666;2023-06-14T06:00:45;15.40;59.10
33988;DHT22;37428;53.580;-1.666;2023-06-14T06:03:49;15.50;59.30
33988;DHT22;37428;53.580;-1.666;2023-06-14T06:06:52;15.60;59.10
33988;DHT22;37428;53.580;-1.666;2023-06-14T06:09:56;15.80;59.20
33988;DHT22;37428;53.580;-1.666;2023-06-14T06:12:58;15.90;58.70
33988;DHT22;37428;53.580;-1.666;2023-06-14T06:16:02;16.10;58.50
33988;DHT22;37428;53.580;-1.666;2023-06-14T06:19:04;16.20;58.80
33988;DHT22;37428;53.580;-1.666;2023-06-14T06:22:06;16.40;57.40
33988;DHT22;37428;53.580;-1.666;2023-06-14T06:25:08;16.40;58.00
33988;DHT22;37428;53.580;-1.666;2023-06-14T06:28:11;16.60;58.00
33988;DHT22;37428;53.580;-1.666;2023-06-14T06:31:14;16.90;57.30
33988;DHT22;37428;53.580;-1.666;2023-06-14T06:34:17;17.00;57.00
33988;DHT22;37428;53.580;-1.666;2023-06-14T06:37:19;17.10;56.50
33988;DHT22;37428;53.580;-1.666;2023-06-14T06:40:22;17.00;56.80
33988;DHT22;37428;53.580;-1.666;2023-06-14T06:43:24;17.10;56.60
33988;DHT22;37428;53.580;-1.666;2023-06-14T06:46:27;17.20;56.90
33988;DHT22;37428;53.580;-1.666;2023-06-14T06:49:33;17.30;56.10
33988;DHT22;37428;53.580;-1.666;2023-06-14T06:52:35;17.40;56.10
33988;DHT22;37428;53.580;-1.666;2023-06-14T06:55:37;17.70;55.40
33988;DHT22;37428;53.580;-1.666;2023-06-14T06:58:39;17.90;55.00
33988;DHT22;37428;53.580;-1.666;2023-06-14T07:01:43;18.10;54.50
33988;DHT22;37428;53.580;-1.666;2023-06-14T07:05:01;18.20;54.20
33988;DHT22;37428;53.580;-1.666;2023-06-14T07:08:04;18.40;53.50
33988;DHT22;37428;53.580;-1.666;2023-06-14T07:11:06;18.10;53.10
33988;DHT22;37428;53.580;-1.666;2023-06-14T07:14:10;18.30;53.60
33988;DHT22;37428;53.580;-1.666;2023-06-14T07:17:16;18.50;53.30
33988;DHT22;37428;53.580;-1.666;2023-06-14T07:20:20;18.70;53.00
33988;DHT22;37428;53.580;-1.666;2023-06-14T07:23:25;18.90;52.70
33988;DHT22;37428;53.580;-1.666;2023-06-14T07:26:27;19.10;52.20
33988;DHT22;37428;53.580;-1.666;2023-06-14T07:29:31;19.30;50.90
33988;DHT22;37428;53.580;-1.666;2023-06-14T07:32:37;19.20;51.00
33988;DHT22;37428;53.580;-1.666;2023-06-14T07:35:41;19.40;50.90
33988;DHT22;37428;53.580;-1.666;2023-06-14T07:38:43;19.40;50.30
33988;DHT22;37428;53.580;-1.666;2023-06-14T07:41:45;19.70;49.70
33988;DHT22;37428;53.580;-1.666;2023-06-14T07:44:48;20.20;49.00
33988;DHT22;37428;53.580;-1.666;2023-06-14T07:47:52;20.20;48.90
33988;DHT22;37428;53.580;-1.666;2023-06-14T07:50:54;20.30;49.30
33988;DHT22;37428;53.580;-1.666;2023-06-14T07:53:59;20.40;48.20
33988;DHT22;37428;53.580;-1.666;2023-06-14T07:57:06;20.50;48.00
33988;DHT22;37428;53.580;-1.666;2023-06-14T08:00:11;20.80;47.50
33988;DHT22;37428;53.580;-1.666;2023-06-14T08:03:18;20.90;46.70
33988;DHT22;37428;53.580;-1.666;2023-06-14T08:06:21;20.90;46.70
33988;DHT22;37428;53.580;-1.666;2023-06-14T08:09:23;21.00;46.10
33988;DHT22;37428;53.580;-1.666;2023-06-14T08:12:26;21.00;45.40
33988;DHT22;37428;53.580;-1.666;2023-06-14T08:15:30;21.00;46.10
33988;DHT22;37428;53.580;-1.666;2023-06-14T08:18:36;21.00;45.60
33988;DHT22;37428;53.580;-1.666;2023-06-14T08:21:40;21.10;45.40
33988;DHT22;37428;53.580;-1.666;2023-06-14T08:24:42;21.10;45.70
33988;DHT22;37428;53.580;-1.666;2023-06-14T08:27:50;21.00;45.30
33988;DHT22;37428;53.580;-1.666;2023-06-14T08:30:53;21.00;45.60
33988;DHT22;37428;53.580;-1.666;2023-06-14T08:34:00;21.00;45.30
33988;DHT22;37428;53.580;-1.666;2023-06-14T08:37:03;21.30;45.30
33988;DHT22;37428;53.580;-1.666;2023-06-14T08:40:12;21.50;44.30
33988;DHT22;37428;53.580;-1.666;2023-06-14T08:43:18;21.70;43.80
33988;DHT22;37428;53.580;-1.666;2023-06-14T08:46:20;21.90;43.60
33988;DHT22;37428;53.580;-1.666;2023-06-14T08:49:31;22.00;43.00
33988;DHT22;37428;53.580;-1.666;2023-06-14T08:52:37;22.20;42.20
33988;DHT22;37428;53.580;-1.666;2023-06-14T08:55:41;22.50;42.20
33988;DHT22;37428;53.580;-1.666;2023-06-14T08:58:49;22.50;41.50
33988;DHT22;37428;53.580;-1.666;2023-06-14T09:01:53;22.50;42.20
33988;DHT22;37428;53.580;-1.666;2023-06-14T09:05:00;22.70;42.30
33988;DHT22;37428;53.580;-1.666;2023-06-14T09:08:02;22.80;39.90
33988;DHT22;37428;53.580;-1.666;2023-06-14T09:11:05;22.70;40.00
33988;DHT22;37428;53.580;-1.666;2023-06-14T09:14:11;22.80;39.90
33988;DHT22;37428;53.580;-1.666;2023-06-14T09:17:28;22.70;39.70
33988;DHT22;37428;53.580;-1.666;2023-06-14T09:20:35;22.50;39.60
33988;DHT22;37428;53.580;-1.666;2023-06-14T09:23:38;23.00;40.30
33988;DHT22;37428;53.580;-1.666;2023-06-14T09:26:40;23.00;37.60
33988;DHT22;37428;53.580;-1.666;2023-06-14T09:29:43;23.20;37.20
33988;DHT22;37428;53.580;-1.666;2023-06-14T09:32:45;23.40;38.00
33988;DHT22;37428;53.580;-1.666;2023-06-14T09:35:52;23.50;36.60
33988;DHT22;37428;53.580;-1.666;2023-06-14T09:39:08;23.50;36.80
33988;DHT22;37428;53.580;-1.666;2023-06-14T09:42:17;23.70;37.50
33988;DHT22;37428;53.580;-1.666;2023-06-14T09:45:20;24.20;35.60
33988;DHT22;37428;53.580;-1.666;2023-06-14T09:48:23;24.50;35.70
33988;DHT22;37428;53.580;-1.666;2023-06-14T09:51:29;24.60;34.90
33988;DHT22;37428;53.580;-1.666;2023-06-14T09:54:34;24.40;34.80
33988;DHT22;37428;53.580;-1.666;2023-06-14T09:57:42;24.40;35.50
33988;DHT22;37428;53.580;-1.666;2023-06-14T10:00:45;24.70;35.20
33988;DHT22;37428;53.580;-1.666;2023-06-14T10:03:50;25.00;34.20
33988;DHT22;37428;53.580;-1.666;2023-06-14T10:06:57;25.20;33.70
33988;DHT22;37428;53.580;-1.666;2023-06-14T10:10:00;25.10;32.80
33988;DHT22;37428;53.580;-1.666;2023-06-14T10:13:02;25.30;32.30
33988;DHT22;37428;53.580;-1.666;2023-06-14T10:16:06;25.30;31.80
33988;DHT22;37428;53.580;-1.666;2023-06-14T10:19:17;25.50;32.60
33988;DHT22;37428;53.580;-1.666;2023-06-14T10:22:27;25.60;32.00
33988;DHT22;37428;53.580;-1.666;2023-06-14T10:25:31;25.40;32.30
33988;DHT22;37428;53.580;-1.666;2023-06-14T10:28:37;25.10;32.20
33988;DHT22;37428;53.580;-1.666;2023-06-14T10:31:41;25.10;31.00
33988;DHT22;37428;53.580;-1.666;2023-06-14T10:34:43;25.30;32.80
33988;DHT22;37428;53.580;-1.666;2023-06-14T10:37:49;25.60;31.60
33988;DHT22;37428;53.580;-1.666;2023-06-14T10:40:53;25.60;31.90
33988;DHT22;37428;53.580;-1.666;2023-06-14T10:44:32;25.40;30.60
33988;DHT22;37428;53.580;-1.666;2023-06-14T10:47:35;25.20;31.50
33988;DHT22;37428;53.580;-1.666;2023-06-14T10:50:42;25.30;30.90
33988;DHT22;37428;53.580;-1.666;2023-06-14T10:53:48;25.20;31.90
33988;DHT22;37428;53.580;-1.666;2023-06-14T10:56:51;25.50;32.70
33988;DHT22;37428;53.580;-1.666;2023-06-14T10:59:54;25.40;30.10
33988;DHT22;37428;53.580;-1.666;2023-06-14T11:03:29;25.30;29.80
33988;DHT22;37428;53.580;-1.666;2023-06-14T11:06:45;25.30;29.20
33988;DHT22;37428;53.580;-1.666;2023-06-14T11:10:09;25.40;29.30
33988;DHT22;37428;53.580;-1.666;2023-06-14T11:13:12;25.30;30.40
33988;DHT22;37428;53.580;-1.666;2023-06-14T11:16:16;25.20;30.80
33988;DHT22;37428;53.580;-1.666;2023-06-14T11:19:19;25.10;31.30
33988;DHT22;37428;53.580;-1.666;2023-06-14T11:22:21;25.40;31.10
33988;DHT22;37428;53.580;-1.666;2023-06-14T11:25:25;25.50;30.50
33988;DHT22;37428;53.580;-1.666;2023-06-14T11:28:36;25.80;30.50
33988;DHT22;37428;53.580;-1.666;2023-06-14T11:31:43;26.20;30.20
33988;DHT22;37428;53.580;-1.666;2023-06-14T11:34:46;26.70;30.50
33988;DHT22;37428;53.580;-1.666;2023-06-14T11:37:48;26.60;29.40
33988;DHT22;37428;53.580;-1.666;2023-06-14T11:40:58;26.50;29.40
33988;DHT22;37428;53.580;-1.666;2023-06-14T11:44:01;26.50;29.90
33988;DHT22;37428;53.580;-1.666;2023-06-14T11:47:04;26.40;28.60
33988;DHT22;37428;53.580;-1.666;2023-06-14T11:50:08;26.20;29.20
33988;DHT22;37428;53.580;-1.666;2023-06-14T11:53:11;26.10;29.40
33988;DHT22;37428;53.580;-1.666;2023-06-14T11:56:15;25.90;29.50
33988;DHT22;37428;53.580;-1.666;2023-06-14T11:59:17;26.00;29.90
33988;DHT22;37428;53.580;-1.666;2023-06-14T12:02:25;26.20;29.80
33988;DHT22;37428;53.580;-1.666;2023-06-14T12:05:29;26.40;29.00
33988;DHT22;37428;53.580;-1.666;2023-06-14T12:08:35;26.50;28.70
33988;DHT22;37428;53.580;-1.666;2023-06-14T12:11:41;26.80;28.40
33988;DHT22;37428;53.580;-1.666;2023-06-14T12:14:43;27.00;28.70
33988;DHT22;37428;53.580;-1.666;2023-06-14T12:17:45;27.00;28.50
33988;DHT22;37428;53.580;-1.666;2023-06-14T12:20:50;27.50;28.40
33988;DHT22;37428;53.580;-1.666;2023-06-14T12:23:53;27.60;27.80
33988;DHT22;37428;53.580;-1.666;2023-06-14T12:26:57;27.50;28.50
33988;DHT22;37428;53.580;-1.666;2023-06-14T12:30:01;27.20;29.00
33988;DHT22;37428;53.580;-1.666;2023-06-14T12:33:04;27.60;28.60
33988;DHT22;37428;53.580;-1.666;2023-06-14T12:36:09;27.80;29.50
33988;DHT22;37428;53.580;-1.666;2023-06-14T12:39:13;28.20;29.00
33988;DHT22;37428;53.580;-1.666;2023-06-14T12:42:16;28.10;28.80
33988;DHT22;37428;53.580;-1.666;2023-06-14T12:45:18;28.00;29.20
33988;DHT22;37428;53.580;-1.666;2023-06-14T12:48:21;27.80;29.40
33988;DHT22;37428;53.580;-1.666;2023-06-14T12:51:23;28.10;29.80
33988;DHT22;37428;53.580;-1.666;2023-06-14T12:54:26;27.90;30.80
33988;DHT22;37428;53.580;-1.666;2023-06-14T12:57:29;27.80;30.00
33988;DHT22;37428;53.580;-1.666;2023-06-14T13:00:31;27.80;29.90
33988;DHT22;37428;53.580;-1.666;2023-06-14T13:03:33;28.10;29.30
33988;DHT22;37428;53.580;-1.666;2023-06-14T13:06:35;28.30;29.50
33988;DHT22;37428;53.580;-1.666;2023-06-14T13:09:37;28.40;30.00
33988;DHT22;37428;53.580;-1.666;2023-06-14T13:12:41;28.10;29.50
33988;DHT22;37428;53.580;-1.666;2023-06-14T13:15:43;27.90;29.50
33988;DHT22;37428;53.580;-1.666;2023-06-14T13:18:46;27.80;30.10
33988;DHT22;37428;53.580;-1.666;2023-06-14T13:21:49;27.70;30.20
33988;DHT22;37428;53.580;-1.666;2023-06-14T13:24:51;27.60;29.80
33988;DHT22;37428;53.580;-1.666;2023-06-14T13:27:54;27.90;29.90
33988;DHT22;37428;53.580;-1.666;2023-06-14T13:30:56;28.10;29.50
33988;DHT22;37428;53.580;-1.666;2023-06-14T13:33:58;28.10;29.90
33988;DHT22;37428;53.580;-1.666;2023-06-14T13:37:00;28.10;29.50
33988;DHT22;37428;53.580;-1.666;2023-06-14T13:40:03;27.80;29.10
33988;DHT22;37428;53.580;-1.666;2023-06-14T13:43:06;27.90;29.90
33988;DHT22;37428;53.580;-1.666;2023-06-14T13:46:09;28.20;29.50
33988;DHT22;37428;53.580;-1.666;2023-06-14T13:49:10;28.10;28.60
33988;DHT22;37428;53.580;-1.666;2023-06-14T13:52:13;27.90;28.30
33988;DHT22;37428;53.580;-1.666;2023-06-14T13:55:15;27.90;28.80
33988;DHT22;37428;53.580;-1.666;2023-06-14T13:58:19;27.90;29.30
33988;DHT22;37428;53.580;-1.666;2023-06-14T14:01:21;27.60;28.70
33988;DHT22;37428;53.580;-1.666;2023-06-14T14:04:23;27.40;29.30
33988;DHT22;37428;53.580;-1.666;2023-06-14T14:07:25;27.50;29.40
33988;DHT22;37428;53.580;-1.666;2023-06-14T14:10:32;27.80;29.10
33988;DHT22;37428;53.580;-1.666;2023-06-14T14:13:36;27.90;28.60
33988;DHT22;37428;53.580;-1.666;2023-06-14T14:16:38;27.90;28.60
33988;DHT22;37428;53.580;-1.666;2023-06-14T14:19:40;27.80;28.30
33988;DHT22;37428;53.580;-1.666;2023-06-14T14:22:42;27.90;28.10
33988;DHT22;37428;53.580;-1.666;2023-06-14T14:25:45;27.90;28.70
33988;DHT22;37428;53.580;-1.666;2023-06-14T14:28:48;28.00;27.90
33988;DHT22;37428;53.580;-1.666;2023-06-14T14:31:50;28.20;27.60
33988;DHT22;37428;53.580;-1.666;2023-06-14T14:34:52;28.00;27.60
33988;DHT22;37428;53.580;-1.666;2023-06-14T14:37:54;28.30;27.80
33988;DHT22;37428;53.580;-1.666;2023-06-14T14:40:56;28.50;27.10
33988;DHT22;37428;53.580;-1.666;2023-06-14T14:43:59;28.40;27.00
33988;DHT22;37428;53.580;-1.666;2023-06-14T14:47:01;28.30;27.40
33988;DHT22;37428;53.580;-1.666;2023-06-14T14:50:04;28.40;27.70
33988;DHT22;37428;53.580;-1.666;2023-06-14T14:53:09;28.40;28.00
33988;DHT22;37428;53.580;-1.666;2023-06-14T14:56:11;28.50;25.80
33988;DHT22;37428;53.580;-1.666;2023-06-14T14:59:14;28.30;26.30
33988;DHT22;37428;53.580;-1.666;2023-06-14T15:02:16;28.30;27.00
33988;DHT22;37428;53.580;-1.666;2023-06-14T15:05:18;27.80;27.80
33988;DHT22;37428;53.580;-1.666;2023-06-14T15:08:20;28.10;27.80
33988;DHT22;37428;53.580;-1.666;2023-06-14T15:11:22;27.90;28.10
33988;DHT22;37428;53.580;-1.666;2023-06-14T15:14:26;27.90;27.40
33988;DHT22;37428;53.580;-1.666;2023-06-14T15:17:28;27.80;27.50
33988;DHT22;37428;53.580;-1.666;2023-06-14T15:20:30;27.60;27.50
33988;DHT22;37428;53.580;-1.666;2023-06-14T15:23:32;27.60;28.10
33988;DHT22;37428;53.580;-1.666;2023-06-14T15:26:34;27.80;28.20
33988;DHT22;37428;53.580;-1.666;2023-06-14T15:29:37;27.70;27.80
33988;DHT22;37428;53.580;-1.666;2023-06-14T15:32:40;27.30;28.60
33988;DHT22;37428;53.580;-1.666;2023-06-14T15:35:42;27.20;29.00
33988;DHT22;37428;53.580;-1.666;2023-06-14T15:38:44;27.30;29.10
33988;DHT22;37428;53.580;-1.666;2023-06-14T15:41:46;27.50;28.60
33988;DHT22;37428;53.580;-1.666;2023-06-14T15:44:49;27.60;28.10
33988;DHT22;37428;53.580;-1.666;2023-06-14T15:47:51;27.50;28.60
33988;DHT22;37428;53.580;-1.666;2023-06-14T15:50:53;27.50;28.80
33988;DHT22;37428;53.580;-1.666;2023-06-14T15:53:55;27.00;29.60
33988;DHT22;37428;53.580;-1.666;2023-06-14T15:56:57;27.10;29.70
33988;DHT22;37428;53.580;-1.666;2023-06-14T16:00:00;27.50;29.70
33988;DHT22;37428;53.580;-1.666;2023-06-14T16:03:03;27.50;29.10
33988;DHT22;37428;53.580;-1.666;2023-06-14T16:06:05;27.20;28.90
33988;DHT22;37428;53.580;-1.666;2023-06-14T16:09:07;26.80;29.80
33988;DHT22;37428;53.580;-1.666;2023-06-14T16:12:09;26.50;30.70
33988;DHT22;37428;53.580;-1.666;2023-06-14T16:15:13;26.60;30.20
33988;DHT22;37428;53.580;-1.666;2023-06-14T16:18:16;26.60;30.50
33988;DHT22;37428;53.580;-1.666;2023-06-14T16:21:19;26.40;29.70
33988;DHT22;37428;53.580;-1.666;2023-06-14T16:24:21;26.40;30.10
33988;DHT22;37428;53.580;-1.666;2023-06-14T16:27:23;26.20;30.50
33988;DHT22;37428;53.580;-1.666;2023-06-14T16:30:26;26.20;30.80
33988;DHT22;37428;53.580;-1.666;2023-06-14T16:33:29;26.20;30.90
33988;DHT22;37428;53.580;-1.666;2023-06-14T16:36:30;26.00;31.10
33988;DHT22;37428;53.580;-1.666;2023-06-14T16:39:33;25.70;31.50
33988;DHT22;37428;53.580;-1.666;2023-06-14T16:42:36;25.70;31.90
33988;DHT22;37428;53.580;-1.666;2023-06-14T16:45:39;25.60;31.90
33988;DHT22;37428;53.580;-1.666;2023-06-14T16:48:41;25.60;31.70
33988;DHT22;37428;53.580;-1.666;2023-06-14T16:51:43;25.40;32.00
33988;DHT22;37428;53.580;-1.666;2023-06-14T16:54:45;25.20;32.00
33988;DHT22;37428;53.580;-1.666;2023-06-14T16:57:47;25.00;32.90
33988;DHT22;37428;53.580;-1.666;2023-06-14T17:00:51;24.90;33.00
33988;DHT22;37428;53.580;-1.666;2023-06-14T17:03:53;25.00;33.20
33988;DHT22;37428;53.580;-1.666;2023-06-14T17:06:55;24.70;33.30
33988;DHT22;37428;53.580;-1.666;2023-06-14T17:09:59;24.50;33.70
33988;DHT22;37428;53.580;-1.666;2023-06-14T17:13:01;24.50;33.60
33988;DHT22;37428;53.580;-1.666;2023-06-14T17:16:05;24.40;33.90
33988;DHT22;37428;53.580;-1.666;2023-06-14T17:19:07;24.00;34.40
33988;DHT22;37428;53.580;-1.666;2023-06-14T17:22:09;23.70;35.30
33988;DHT22;37428;53.580;-1.666;2023-06-14T17:25:11;23.60;35.50
33988;DHT22;37428;53.580;-1.666;2023-06-14T17:28:14;23.50;35.70
33988;DHT22;37428;53.580;-1.666;2023-06-14T17:31:19;23.50;35.80
33988;DHT22;37428;53.580;-1.666;2023-06-14T17:34:21;23.50;35.70
33988;DHT22;37428;53.580;-1.666;2023-06-14T17:37:25;23.40;35.80
33988;DHT22;37428;53.580;-1.666;2023-06-14T17:40:28;23.10;35.70
33988;DHT22;37428;53.580;-1.666;2023-06-14T17:43:30;22.90;36.40
33988;DHT22;37428;53.580;-1.666;2023-06-14T17:46:38;22.90;37.20
33988;DHT22;37428;53.580;-1.666;2023-06-14T17:49:42;22.80;37.60
33988;DHT22;37428;53.580;-1.666;2023-06-14T17:52:44;22.60;37.70
33988;DHT22;37428;53.580;-1.666;2023-06-14T17:55:47;22.60;37.30
33988;DHT22;37428;53.580;-1.666;2023-06-14T17:58:50;22.50;37.80
33988;DHT22;37428;53.580;-1.666;2023-06-14T18:01:54;22.40;37.80
33988;DHT22;37428;53.580;-1.666;2023-06-14T18:04:56;22.30;37.20
33988;DHT22;37428;53.580;-1.666;2023-06-14T18:08:00;22.30;37.50
33988;DHT22;37428;53.580;-1.666;2023-06-14T18:11:08;22.20;37.60
33988;DHT22;37428;53.580;-1.666;2023-06-14T18:14:13;22.20;37.30
33988;DHT22;37428;53.580;-1.666;2023-06-14T18:17:19;22.10;38.00
33988;DHT22;37428;53.580;-1.666;2023-06-14T18:20:23;22.10;38.60
33988;DHT22;37428;53.580;-1.666;2023-06-14T18:23:27;22.10;38.60
33988;DHT22;37428;53.580;-1.666;2023-06-14T18:26:31;22.10;38.50
33988;DHT22;37428;53.580;-1.666;2023-06-14T18:29:33;21.90;39.10
33988;DHT22;37428;53.580;-1.666;2023-06-14T18:32:39;21.90;39.40
33988;DHT22;37428;53.580;-1.666;2023-06-14T18:35:41;21.90;39.20
33988;DHT22;37428;53.580;-1.666;2023-06-14T18:38:44;21.80;38.90
33988;DHT22;37428;53.580;-1.666;2023-06-14T18:41:46;21.70;39.60
33988;DHT22;37428;53.580;-1.666;2023-06-14T18:44:49;21.60;40.20
33988;DHT22;37428;53.580;-1.666;2023-06-14T18:47:57;21.50;41.30
33988;DHT22;37428;53.580;-1.666;2023-06-14T18:50:59;21.40;41.30
33988;DHT22;37428;53.580;-1.666;2023-06-14T18:54:03;21.40;41.70
33988;DHT22;37428;53.580;-1.666;2023-06-14T18:57:08;21.40;42.90
33988;DHT22;37428;53.580;-1.666;2023-06-14T19:00:11;21.30;44.30
33988;DHT22;37428;53.580;-1.666;2023-06-14T19:03:17;21.20;44.90